createdAt,value
2022-12-29T00:02:32.032Z,97128.25
2022-12-29T00:07:33.688Z,97118.88
2022-12-29T00:12:53.867Z,97104.66
2022-12-29T00:17:55.519Z,97108.91
2022-12-29T00:23:15.731Z,97097.97
2022-12-29T00:28:36.011Z,97098.16
2022-12-29T00:33:56.158Z,97090.28
2022-12-29T00:39:20.510Z,97092.69
2022-12-29T00:44:22.114Z,97089.88
2022-12-29T00:49:32.759Z,97086.28
2022-12-29T00:54:37.726Z,97095.59
2022-12-29T00:59:41.224Z,97093.22
2022-12-29T01:04:42.830Z,97098.91
2022-12-29T01:10:02.958Z,97108.91
2022-12-29T01:15:05.041Z,97112.41
2022-12-29T01:20:07.381Z,97105.56
2022-12-29T01:25:10.570Z,97104.97
2022-12-29T01:30:13.837Z,97104.78
2022-12-29T01:35:15.864Z,97083.91
2022-12-29T01:40:20.374Z,97077.75
2022-12-29T01:45:22.597Z,97070.78
2022-12-29T01:50:29.673Z,97068.97
2022-12-29T01:55:35.290Z,97058.97
2022-12-29T02:00:38.545Z,97060.84
2022-12-29T02:05:46.978Z,97070.13
2022-12-29T02:10:49.469Z,97077.00
2022-12-29T02:15:57.663Z,97066.84
2022-12-29T02:21:02.258Z,97058.66
2022-12-29T02:26:28.774Z,97054.66
2022-12-29T02:31:36.405Z,97055.09
2022-12-29T02:37:06.217Z,97037.78
2022-12-29T02:42:19.117Z,97048.53
2022-12-29T02:47:20.664Z,97038.94
2022-12-29T02:52:49.015Z,97044.75
2022-12-29T02:58:14.491Z,97047.34
2022-12-29T03:03:29.486Z,97039.38
2022-12-29T03:08:31.811Z,97043.75
2022-12-29T03:13:58.782Z,97044.75
2022-12-29T03:19:26.688Z,97029.41
2022-12-29T03:24:32.252Z,97025.81
2022-12-29T03:29:40.526Z,97021.44
2022-12-29T03:34:42.910Z,97020.06
2022-12-29T03:39:45.253Z,97018.25
2022-12-29T03:44:48.006Z,96992.72
2022-12-29T03:49:51.753Z,96987.31
2022-12-29T03:54:53.578Z,96986.31
2022-12-29T03:59:55.413Z,96991.19
2022-12-29T04:04:57.148Z,97005.75
2022-12-29T04:09:59.084Z,96998.94
2022-12-29T04:15:02.720Z,97004.91
2022-12-29T04:20:24.079Z,97001.69
2022-12-29T04:25:28.021Z,97025.22
2022-12-29T04:30:29.742Z,97008.84
2022-12-29T04:35:53.210Z,97005.81
2022-12-29T04:40:56.741Z,97008.59
2022-12-29T04:45:59.406Z,97002.59
2022-12-29T04:51:06.963Z,97014.59
2022-12-29T04:56:13.107Z,97001.66
2022-12-29T05:01:14.965Z,96983.50
2022-12-29T05:06:16.735Z,96989.56
2022-12-29T05:11:18.596Z,96989.56
2022-12-29T05:16:22.634Z,96991.72
2022-12-29T05:21:24.623Z,96977.72
2022-12-29T05:26:27.280Z,96990.47
2022-12-29T05:31:34.600Z,96992.50
2022-12-29T05:36:38.264Z,97003.31
2022-12-29T05:41:42.301Z,96990.47
2022-12-29T05:47:01.019Z,97014.03
2022-12-29T05:52:18.110Z,96987.06
2022-12-29T05:57:20.569Z,96998.38
2022-12-29T06:02:30.114Z,96990.44
2022-12-29T06:07:32.625Z,96998.94
2022-12-29T06:12:35.201Z,97006.06
2022-12-29T06:17:36.946Z,97003.47
2022-12-29T06:22:39.730Z,97001.75
2022-12-29T06:27:42.083Z,97006.97
2022-12-29T06:32:44.225Z,96993.66
2022-12-29T06:37:47.544Z,96984.31
2022-12-29T06:42:49.212Z,96986.16
2022-12-29T06:48:17.377Z,96995.63
2022-12-29T06:53:18.991Z,96991.03
2022-12-29T06:58:20.618Z,96973.63
2022-12-29T07:03:22.301Z,96971.56
2022-12-29T07:08:23.930Z,96966.19
2022-12-29T07:13:25.587Z,96991.00
2022-12-29T07:18:27.149Z,96996.41
2022-12-29T07:23:28.795Z,96984.06
2022-12-29T07:28:30.744Z,97005.19
2022-12-29T07:33:33.634Z,96995.44
2022-12-29T07:38:35.460Z,96987.69
2022-12-29T07:43:37.100Z,96989.09
2022-12-29T07:49:08.015Z,96988.63
2022-12-29T07:54:10.101Z,97000.75
2022-12-29T07:59:13.031Z,97009.56
2022-12-29T08:04:14.646Z,97016.44
2022-12-29T08:09:21.995Z,97024.94
2022-12-29T08:14:24.692Z,97024.69
2022-12-29T08:19:26.309Z,97028.38
2022-12-29T08:24:28.030Z,97042.53
2022-12-29T08:29:29.600Z,97038.69
2022-12-29T08:34:32.708Z,97043.75
2022-12-29T08:39:34.836Z,97040.56
2022-12-29T08:44:36.423Z,97032.56
2022-12-29T08:49:38.213Z,97038.78
2022-12-29T08:54:39.877Z,97030.22
2022-12-29T08:59:41.637Z,97046.03
2022-12-29T09:04:46.133Z,97041.19
2022-12-29T09:09:47.817Z,97023.31
2022-12-29T09:14:49.447Z,97024.56
2022-12-29T09:19:51.510Z,97028.97
2022-12-29T09:24:53.121Z,97023.69
2022-12-29T09:29:54.789Z,97032.81
2022-12-29T09:34:56.361Z,97030.63
2022-12-29T09:39:58.035Z,97027.41
2022-12-29T09:45:05.860Z,97011.06
2022-12-29T09:50:29.259Z,97014.88
2022-12-29T09:55:40.657Z,97019.28
2022-12-29T10:00:59.488Z,97015.47
2022-12-29T10:06:22.446Z,96993.66
2022-12-29T10:11:51.698Z,96995.47
2022-12-29T10:17:14.874Z,96999.28
2022-12-29T10:22:48.804Z,97002.28
2022-12-29T10:27:52.883Z,96985.47
2022-12-29T10:32:59.065Z,96989.00
2022-12-29T10:38:19.539Z,96991.38
2022-12-29T10:43:24.194Z,96984.53
2022-12-29T10:48:34.834Z,96986.03
2022-12-29T10:53:36.628Z,96988.88
2022-12-29T10:58:38.655Z,96979.16
2022-12-29T11:03:56.550Z,96972.19
2022-12-29T11:09:03.517Z,96985.81
2022-12-29T11:14:16.150Z,96977.41
2022-12-29T11:19:27.738Z,96975.22
2022-12-29T11:24:30.775Z,96996.25
2022-12-29T11:29:43.871Z,96982.03
2022-12-29T11:34:46.124Z,96973.63
2022-12-29T11:40:09.282Z,96957.81
2022-12-29T11:45:25.350Z,96969.81
2022-12-29T11:50:33.949Z,96975.81
2022-12-29T11:55:35.868Z,96978.03
2022-12-29T12:00:41.347Z,96965.78
2022-12-29T12:05:57.243Z,96957.94
2022-12-29T12:11:08.134Z,96970.25
2022-12-29T12:16:21.899Z,96951.69
2022-12-29T12:21:30.780Z,96948.66
2022-12-29T12:26:45.247Z,96950.19
2022-12-29T12:31:54.322Z,96941.81
2022-12-29T12:37:15.017Z,96932.66
2022-12-29T12:42:32.090Z,96939.19
2022-12-29T12:47:54.569Z,96936.19
2022-12-29T12:53:20.934Z,96940.94
2022-12-29T12:58:51.230Z,96932.19
2022-12-29T13:04:08.356Z,96935.25
2022-12-29T13:09:31.447Z,96941.69
2022-12-29T13:14:53.003Z,96928.66
2022-12-29T13:20:04.405Z,96930.06
2022-12-29T13:25:23.014Z,96945.53
2022-12-29T13:30:50.179Z,96938.28
2022-12-29T13:36:30.506Z,96948.72
2022-12-29T13:41:38.442Z,96939.91
2022-12-29T13:46:44.088Z,96935.53
2022-12-29T13:51:52.796Z,96956.19
2022-12-29T13:57:08.008Z,96944.13
2022-12-29T14:02:28.609Z,96949.94
2022-12-29T14:07:38.393Z,96959.59
2022-12-29T14:12:43.138Z,96970.63
2022-12-29T14:17:45.634Z,96995.25
2022-12-29T14:22:57.905Z,97018.28
2022-12-29T14:27:59.760Z,96982.91
2022-12-29T14:33:04.067Z,96974.66
2022-12-29T14:38:21.212Z,96983.09
2022-12-29T14:43:26.988Z,96993.50
2022-12-29T14:48:37.330Z,97012.31
2022-12-29T14:53:44.334Z,97017.50
2022-12-29T14:59:00.428Z,97022.47
2022-12-29T15:04:16.150Z,97030.50
2022-12-29T15:09:37.434Z,97031.44
2022-12-29T15:14:49.700Z,97038.00
2022-12-29T15:19:51.814Z,97051.56
2022-12-29T15:24:55.637Z,97057.72
2022-12-29T15:30:00.385Z,97051.25
2022-12-29T15:35:42.649Z,97060.03
2022-12-29T15:40:46.085Z,97066.59
2022-12-29T15:45:48.418Z,97074.38
2022-12-29T15:50:52.140Z,97080.75
2022-12-29T15:55:57.113Z,97097.09
2022-12-29T16:01:03.446Z,97099.09
2022-12-29T16:06:11.888Z,97105.94
2022-12-29T16:11:39.405Z,97112.34
2022-12-29T16:16:43.452Z,97117.13
2022-12-29T16:21:46.639Z,97121.31
2022-12-29T16:26:50.996Z,97119.97
2022-12-29T16:32:01.313Z,97119.13
2022-12-29T16:37:24.981Z,97108.41
2022-12-29T16:42:42.442Z,97109.38
2022-12-29T16:47:50.223Z,97104.50
2022-12-29T16:52:52.140Z,97102.81
2022-12-29T16:57:57.355Z,97100.72
2022-12-29T17:03:01.990Z,97110.47
2022-12-29T17:08:04.087Z,97112.00
2022-12-29T17:13:06.237Z,97109.00
2022-12-29T17:18:13.847Z,97107.06
2022-12-29T17:23:22.815Z,97105.38
2022-12-29T17:28:32.981Z,97107.81
2022-12-29T17:33:40.182Z,97106.84
2022-12-29T17:38:41.977Z,97111.09
2022-12-29T17:43:43.777Z,97121.78
2022-12-29T17:48:51.477Z,97131.28
2022-12-29T17:53:55.364Z,97140.47
2022-12-29T17:58:57.177Z,97139.69
2022-12-29T18:03:59.002Z,97139.13
2022-12-29T18:09:00.839Z,97138.19
2022-12-29T18:14:02.696Z,97141.84
2022-12-29T18:19:04.504Z,97088.22
2022-12-29T18:24:06.706Z,97100.81
2022-12-29T18:29:08.509Z,97123.25
2022-12-29T18:34:15.419Z,97139.63
2022-12-29T18:39:17.203Z,97135.50
2022-12-29T18:44:20.429Z,97141.06
2022-12-29T18:49:22.284Z,97131.38
2022-12-29T18:54:33.479Z,97145.72
2022-12-29T18:59:35.330Z,97142.75
2022-12-29T19:04:37.162Z,97136.69
2022-12-29T19:09:39.144Z,97138.69
2022-12-29T19:14:41.068Z,97133.06
2022-12-29T19:19:43.184Z,97143.75
2022-12-29T19:24:45.108Z,97133.28
2022-12-29T19:29:46.943Z,97136.00
2022-12-29T19:34:49.030Z,97142.06
2022-12-29T19:39:50.900Z,97132.06
2022-12-29T19:44:52.843Z,97131.63
2022-12-29T19:49:54.752Z,97136.81
2022-12-29T19:54:56.715Z,97143.34
2022-12-29T19:59:58.664Z,97143.59
2022-12-29T20:05:00.979Z,97129.41
2022-12-29T20:10:04.137Z,97118.88
2022-12-29T20:15:07.911Z,97120.75
2022-12-29T20:20:09.873Z,97121.28
2022-12-29T20:25:43.786Z,97127.78
2022-12-29T20:30:33.537Z,97141.47
2022-12-29T20:35:35.819Z,97140.66
2022-12-29T20:40:42.562Z,97160.47
2022-12-29T20:45:48.895Z,97148.91
2022-12-29T20:50:50.890Z,97158.53
2022-12-29T20:55:54.161Z,97167.00
2022-12-29T21:00:56.287Z,97168.50
2022-12-29T21:06:00.083Z,97185.69
2022-12-29T21:11:04.026Z,97177.47
2022-12-29T21:16:09.681Z,97184.63
2022-12-29T21:21:23.098Z,97190.31
2022-12-29T21:26:24.952Z,97182.59
2022-12-29T21:31:33.299Z,97189.13
2022-12-29T21:36:35.660Z,97192.22
2022-12-29T21:41:37.502Z,97203.69
2022-12-29T21:46:40.948Z,97206.69
2022-12-29T21:51:52.328Z,97213.63
2022-12-29T21:56:54.301Z,97207.84
2022-12-29T22:02:15.319Z,97215.72
2022-12-29T22:07:35.609Z,97230.63
2022-12-29T22:12:56.531Z,97230.63
2022-12-29T22:17:59.385Z,97219.78
2022-12-29T22:23:02.283Z,97215.41
2022-12-29T22:28:05.480Z,97215.41
2022-12-29T22:33:07.507Z,97218.19
2022-12-29T22:38:09.285Z,97239.09
2022-12-29T22:43:13.217Z,97249.28
2022-12-29T22:48:15.306Z,97264.50
2022-12-29T22:53:17.101Z,97270.66
2022-12-29T22:58:18.898Z,97269.22
2022-12-29T23:03:20.892Z,97275.47
2022-12-29T23:08:22.844Z,97270.38
2022-12-29T23:13:24.705Z,97272.97
2022-12-29T23:18:27.523Z,97282.56
2022-12-29T23:23:49.453Z,97285.91
2022-12-29T23:28:59.539Z,97286.41
2022-12-29T23:34:03.676Z,97293.72
2022-12-29T23:39:06.319Z,97290.78
2022-12-29T23:44:08.173Z,97303.69
2022-12-29T23:49:10.097Z,97296.25
2022-12-29T23:54:12.018Z,97317.75
2022-12-29T23:59:13.827Z,97320.69
